Pagina principale
METAR-TAF:

METAR-TAF

Aeroporti :

Wittering, Inghilterra

latitudine: 52-37N, longitudine: 000-28W, altezza: 84 m

Osservazione

Il bollettino è stato emesso 31 minuti fa, alle 02:50 UTC
Vento 6 kt da sud/sud-est
Temperature 4°C
Umidità 81%
Pressione 1018 hPa
Visibilità 10 km o più
pioggia debole

METAR: EGXT 240250Z AUTO 16006KT 9999 -RA OVC048/// 04/01 Q1018

Ora: 03:21 (03:21 UTC)


TAF: mancante

Osservazioni e previsioni meteorologiche di più di 4000 aeroporti (messaggi METAR e TAF).

Le stazioni disponibili sono rappresentate dai dischi gialli e rossi sulla carta.

Puntare il mouse per vedere il nome della stazione.

Clicca sopra per visualizzare le osservazioni e previsioni meteorologiche.

Per cambiare la mappa : fare clic sui pulsanti verdi con una croce nera per ingrandire, il pulsante verde con un trattino per diminuire, o sulla freccia verde per le mappe adiacenti.


METAR-TAF: